Terminal Aerodrome Forecast
Issued by NWS Amarillo, TX

Home | Current Version | Previous Version | Text Only | Print | Product List | Glossary On
Versions: 1 2 3 4 5 6 7 8 9 10 11 12 13 14
000
FTUS44 KAMA 271100
TAFAMA
TAF
KAMA 271120Z 2712/2812 17012KT P6SM SKC
     FM271400 20016KT P6SM SKC
     FM271600 21019G28KT P6SM FEW250
     FM280000 19013KT P6SM FEW250=

USA.gov is the U.S. government's official web portal to all federal, state and local government web resources and services.